createdAt,value
2019-02-27T00:02:13.157Z,99.57
2019-02-27T00:04:44.419Z,96.20
2019-02-27T00:07:15.033Z,98.77
2019-02-27T00:09:45.733Z,102.67
2019-02-27T00:12:19.348Z,98.27
2019-02-27T00:14:50.119Z,100.10
2019-02-27T00:17:20.726Z,98.47
2019-02-27T00:19:51.375Z,102.83
2019-02-27T00:22:21.980Z,102.83
2019-02-27T00:24:52.621Z,101.47
2019-02-27T00:27:23.464Z,102.43
2019-02-27T00:29:53.893Z,98.63
2019-02-27T00:32:24.369Z,108.37
2019-02-27T00:34:54.948Z,102.37
2019-02-27T00:37:25.501Z,109.40
2019-02-27T00:39:56.003Z,100.37
2019-02-27T00:42:33.498Z,115.23
2019-02-27T00:44:59.879Z,114.50
2019-02-27T00:47:30.336Z,114.73
2019-02-27T00:50:05.606Z,108.93
2019-02-27T00:52:33.023Z,113.10
2019-02-27T00:55:04.666Z,118.00
2019-02-27T00:57:35.811Z,113.50
2019-02-27T01:00:08.447Z,123.63
2019-02-27T01:02:39.086Z,131.93
2019-02-27T01:05:09.663Z,126.37
2019-02-27T01:07:40.257Z,127.43
2019-02-27T01:10:12.975Z,124.13
2019-02-27T01:12:43.649Z,137.10
2019-02-27T01:15:15.161Z,131.80
2019-02-27T01:17:45.999Z,124.43
2019-02-27T01:20:16.683Z,139.20
2019-02-27T01:22:47.289Z,149.93
2019-02-27T01:25:17.871Z,166.17
2019-02-27T01:27:50.632Z,144.63
2019-02-27T01:30:24.014Z,178.53
2019-02-27T01:32:53.275Z,173.23
2019-02-27T01:35:24.149Z,209.97
2019-02-27T01:37:54.659Z,237.87
2019-02-27T01:40:25.512Z,253.27
2019-02-27T01:42:56.049Z,212.03
2019-02-27T01:45:26.645Z,225.93
2019-02-27T01:47:57.285Z,227.60
2019-02-27T01:50:38.548Z,252.07
2019-02-27T01:53:09.941Z,269.43
2019-02-27T01:55:40.683Z,295.50
2019-02-27T01:58:11.294Z,259.67
2019-02-27T02:00:41.996Z,304.13
2019-02-27T02:03:13.768Z,299.60
2019-02-27T02:05:46.129Z,283.00
2019-02-27T02:08:17.137Z,295.70
2019-02-27T02:10:47.711Z,303.17
2019-02-27T02:13:29.423Z,329.87
2019-02-27T02:16:24.829Z,295.33
2019-02-27T02:19:42.464Z,300.27
2019-02-27T02:22:30.626Z,324.03
2019-02-27T02:25:42.009Z,320.67
2019-02-27T02:28:48.024Z,302.73
2019-02-27T02:31:47.370Z,258.43
2019-02-27T02:35:07.624Z,264.03
2019-02-27T02:38:23.609Z,298.60
2019-02-27T02:41:13.084Z,308.53
2019-02-27T02:44:06.584Z,325.17
2019-02-27T02:47:02.096Z,318.17
2019-02-27T02:50:09.072Z,280.50
2019-02-27T02:53:05.603Z,296.87
2019-02-27T02:56:24.883Z,274.00
2019-02-27T02:59:31.311Z,323.67
2019-02-27T03:02:42.888Z,340.43
2019-02-27T03:05:59.778Z,258.87
2019-02-27T03:08:46.662Z,300.60
2019-02-27T03:12:09.314Z,294.13
2019-02-27T03:14:54.374Z,272.90
2019-02-27T03:18:02.328Z,320.23
2019-02-27T03:20:57.029Z,256.90
2019-02-27T03:23:52.783Z,323.23
2019-02-27T03:27:19.885Z,285.43
2019-02-27T03:30:49.543Z,280.13
2019-02-27T03:33:53.948Z,265.00
2019-02-27T03:37:13.147Z,299.63
2019-02-27T03:40:11.761Z,273.17
2019-02-27T03:43:10.469Z,245.07
2019-02-27T03:46:10.476Z,265.77
2019-02-27T03:49:06.064Z,233.60
2019-02-27T03:51:47.492Z,233.47
2019-02-27T03:54:59.487Z,290.53
2019-02-27T03:58:17.940Z,292.63
2019-02-27T04:01:32.742Z,253.57
2019-02-27T04:04:37.688Z,301.40
2019-02-27T04:07:37.924Z,285.73
2019-02-27T04:10:08.394Z,254.97
2019-02-27T04:12:38.888Z,224.50
2019-02-27T04:15:09.727Z,218.23
2019-02-27T04:17:38.511Z,230.60
2019-02-27T04:20:14.619Z,217.93
2019-02-27T04:22:41.294Z,147.50
2019-02-27T04:25:11.811Z,204.77
2019-02-27T04:27:43.401Z,223.33
2019-02-27T04:30:16.429Z,177.70
2019-02-27T04:32:48.661Z,177.40
2019-02-27T04:35:21.109Z,219.63
2019-02-27T04:37:53.924Z,216.00
2019-02-27T04:40:23.720Z,312.83
2019-02-27T04:42:54.184Z,347.07
2019-02-27T04:45:26.025Z,346.27
2019-02-27T04:47:58.533Z,311.70
2019-02-27T04:50:29.129Z,325.60
2019-02-27T04:53:00.156Z,340.40
2019-02-27T04:55:30.832Z,186.10
2019-02-27T04:58:01.432Z,197.67
2019-02-27T05:00:32.108Z,194.77
2019-02-27T05:03:02.630Z,220.70
2019-02-27T05:05:33.552Z,199.90
2019-02-27T05:08:04.188Z,195.30
2019-02-27T05:10:34.816Z,191.37
2019-02-27T05:13:05.372Z,178.57
2019-02-27T05:15:38.915Z,134.50
2019-02-27T05:18:09.628Z,156.70
2019-02-27T05:20:40.137Z,170.07
2019-02-27T05:23:10.658Z,158.30
2019-02-27T05:25:41.234Z,162.87
2019-02-27T05:28:12.002Z,154.87
2019-02-27T05:30:45.018Z,191.07
2019-02-27T05:33:14.815Z,187.30
2019-02-27T05:35:45.322Z,203.00
2019-02-27T05:38:15.925Z,169.10
2019-02-27T05:40:46.476Z,178.67
2019-02-27T05:43:16.954Z,184.10
2019-02-27T05:45:47.466Z,169.47
2019-02-27T05:48:20.066Z,159.70
2019-02-27T05:50:50.168Z,192.83
2019-02-27T05:53:22.290Z,143.60
2019-02-27T05:55:52.875Z,151.93
2019-02-27T05:58:23.591Z,119.13
2019-02-27T06:00:54.263Z,155.30
2019-02-27T06:03:24.774Z,141.10
2019-02-27T06:05:56.388Z,133.07
2019-02-27T06:08:26.882Z,179.03
2019-02-27T06:10:57.358Z,145.47
2019-02-27T06:13:27.929Z,131.07
2019-02-27T06:16:02.563Z,146.30
2019-02-27T06:18:30.519Z,156.73
2019-02-27T06:21:01.023Z,130.67
2019-02-27T06:23:31.594Z,131.57
2019-02-27T06:26:02.141Z,135.67
2019-02-27T06:28:32.590Z,108.37
2019-02-27T06:31:03.352Z,134.53
2019-02-27T06:33:33.882Z,169.50
2019-02-27T06:36:05.309Z,137.80
2019-02-27T06:38:36.612Z,146.53
2019-02-27T06:41:07.190Z,121.07
2019-02-27T06:43:37.708Z,130.17
2019-02-27T06:46:08.240Z,139.20
2019-02-27T06:48:43.086Z,102.87
2019-02-27T06:51:10.878Z,152.03
2019-02-27T06:53:41.325Z,135.37
2019-02-27T06:56:11.884Z,110.10
2019-02-27T06:58:42.381Z,124.03
2019-02-27T07:01:13.254Z,170.40
2019-02-27T07:03:43.944Z,152.60
2019-02-27T07:06:14.650Z,144.87
2019-02-27T07:08:45.110Z,173.47
2019-02-27T07:11:15.652Z,171.67
2019-02-27T07:13:46.498Z,140.07
2019-02-27T07:16:16.959Z,142.93
2019-02-27T07:18:47.549Z,152.00
2019-02-27T07:21:18.034Z,158.97
2019-02-27T07:23:48.545Z,128.37
2019-02-27T07:26:19.094Z,126.37
2019-02-27T07:28:49.727Z,116.87
2019-02-27T07:31:20.211Z,112.60
2019-02-27T07:33:50.782Z,109.53
2019-02-27T07:36:21.341Z,99.80
2019-02-27T07:38:54.390Z,103.97
2019-02-27T07:41:24.012Z,99.70
2019-02-27T07:43:54.607Z,91.13
2019-02-27T07:46:25.071Z,87.57
2019-02-27T07:48:56.743Z,65.90
2019-02-27T07:51:27.998Z,76.97
2019-02-27T07:53:58.548Z,72.87
2019-02-27T07:56:30.075Z,63.80
2019-02-27T07:59:00.603Z,67.30
2019-02-27T08:01:31.285Z,81.53
2019-02-27T08:04:01.861Z,72.63
2019-02-27T08:06:34.995Z,65.90
2019-02-27T08:09:05.486Z,54.97
2019-02-27T08:11:37.580Z,57.83
2019-02-27T08:14:08.116Z,53.13
2019-02-27T08:16:38.629Z,57.03
2019-02-27T08:19:11.562Z,51.73
2019-02-27T08:21:41.333Z,48.57
2019-02-27T08:24:11.910Z,48.63
2019-02-27T08:26:42.431Z,46.80
2019-02-27T08:29:12.991Z,49.77
2019-02-27T08:31:43.514Z,49.90
2019-02-27T08:34:14.152Z,51.53
2019-02-27T08:36:44.641Z,54.57
2019-02-27T08:39:15.084Z,54.70
2019-02-27T08:41:45.638Z,53.20
2019-02-27T08:44:16.100Z,49.80
2019-02-27T08:46:46.613Z,52.50
2019-02-27T08:49:17.096Z,48.53
2019-02-27T08:51:47.651Z,48.77
2019-02-27T08:54:18.126Z,49.10
2019-02-27T08:56:48.629Z,47.37
2019-02-27T08:59:19.162Z,50.67
2019-02-27T09:01:49.687Z,47.83
2019-02-27T09:04:20.240Z,44.40
2019-02-27T09:06:50.796Z,43.30
2019-02-27T09:09:21.436Z,44.60
2019-02-27T09:11:51.858Z,46.00
2019-02-27T09:14:22.292Z,44.80
2019-02-27T09:16:52.771Z,45.83
2019-02-27T09:19:23.298Z,50.13
2019-02-27T09:21:53.831Z,52.30
2019-02-27T09:24:24.277Z,53.47
2019-02-27T09:26:54.898Z,49.73
2019-02-27T09:29:25.450Z,48.37
2019-02-27T09:31:55.989Z,48.10
2019-02-27T09:34:26.856Z,47.53
2019-02-27T09:36:57.931Z,46.10
2019-02-27T09:39:31.100Z,45.67
2019-02-27T09:42:01.796Z,47.70
2019-02-27T09:44:36.369Z,44.03
2019-02-27T09:47:05.656Z,47.90
2019-02-27T09:49:37.943Z,44.83
2019-02-27T09:52:08.872Z,43.77
2019-02-27T09:54:39.675Z,43.20
2019-02-27T09:57:10.393Z,46.23
2019-02-27T09:59:40.936Z,42.53
2019-02-27T10:02:12.493Z,45.47
2019-02-27T10:04:43.348Z,44.60
2019-02-27T10:07:14.654Z,46.17
2019-02-27T10:09:47.556Z,48.43
2019-02-27T10:12:18.089Z,45.97
2019-02-27T10:14:50.250Z,42.67
2019-02-27T10:17:20.623Z,44.60
2019-02-27T10:19:51.206Z,43.73
2019-02-27T10:22:21.720Z,44.63
2019-02-27T10:24:52.472Z,40.07
2019-02-27T10:27:25.512Z,39.37
2019-02-27T10:29:55.195Z,36.27
2019-02-27T10:32:25.677Z,36.63
2019-02-27T10:34:56.152Z,36.33
2019-02-27T10:37:27.815Z,35.80
2019-02-27T10:39:58.262Z,34.93
2019-02-27T10:42:28.733Z,31.80
2019-02-27T10:44:59.255Z,32.13
2019-02-27T10:47:29.720Z,30.70
2019-02-27T10:50:02.191Z,29.33
2019-02-27T10:52:32.634Z,30.10
2019-02-27T10:55:03.250Z,27.47
2019-02-27T10:57:38.279Z,29.80
2019-02-27T11:00:24.851Z,30.03
2019-02-27T11:02:52.981Z,30.40
2019-02-27T11:05:23.722Z,30.87
2019-02-27T11:07:54.413Z,27.23
2019-02-27T11:10:25.447Z,28.33
2019-02-27T11:12:55.982Z,27.33
2019-02-27T11:15:26.500Z,28.43
2019-02-27T11:17:57.122Z,28.90
2019-02-27T11:20:27.532Z,30.30
2019-02-27T11:22:58.094Z,27.30
2019-02-27T11:25:28.657Z,28.10
2019-02-27T11:27:59.397Z,29.97
2019-02-27T11:30:35.671Z,30.30
2019-02-27T11:33:04.622Z,27.33
2019-02-27T11:35:35.162Z,25.67
2019-02-27T11:38:05.979Z,28.10
2019-02-27T11:40:41.782Z,27.13
2019-02-27T11:43:08.804Z,23.37
2019-02-27T11:45:39.409Z,21.53
2019-02-27T11:48:09.941Z,25.07
2019-02-27T11:50:40.447Z,24.60
2019-02-27T11:53:10.892Z,25.50
2019-02-27T11:55:41.451Z,26.10
2019-02-27T11:58:12.130Z,26.07
2019-02-27T12:00:42.648Z,25.00
2019-02-27T12:03:13.365Z,24.40
2019-02-27T12:05:43.937Z,20.83
2019-02-27T12:08:14.500Z,23.40
2019-02-27T12:10:44.986Z,23.40
2019-02-27T12:13:15.473Z,22.50
2019-02-27T12:15:45.950Z,22.43
2019-02-27T12:18:16.562Z,23.80
2019-02-27T12:20:47.148Z,21.80
2019-02-27T12:23:17.753Z,23.67
2019-02-27T12:25:48.449Z,22.77
2019-02-27T12:28:18.955Z,22.37
2019-02-27T12:30:49.589Z,22.13
2019-02-27T12:33:20.056Z,20.10
2019-02-27T12:35:50.575Z,19.90
2019-02-27T12:38:21.109Z,18.97
2019-02-27T12:40:51.944Z,20.80
2019-02-27T12:43:22.529Z,17.93
2019-02-27T12:45:53.211Z,18.57
2019-02-27T12:48:23.762Z,20.00
2019-02-27T12:50:54.291Z,18.60
2019-02-27T12:53:24.771Z,19.30
2019-02-27T12:55:55.251Z,18.77
2019-02-27T12:58:25.853Z,19.83
2019-02-27T13:00:56.369Z,18.17
2019-02-27T13:03:26.863Z,17.33
2019-02-27T13:05:58.215Z,16.10
2019-02-27T13:08:29.541Z,15.33
2019-02-27T13:11:01.130Z,15.07
2019-02-27T13:13:31.599Z,15.03
2019-02-27T13:16:02.161Z,16.17
2019-02-27T13:18:32.734Z,14.50
2019-02-27T13:21:04.407Z,13.77
2019-02-27T13:23:36.314Z,13.80
2019-02-27T13:26:07.073Z,15.87
2019-02-27T13:28:37.567Z,15.23
2019-02-27T13:31:08.177Z,14.37
2019-02-27T13:33:38.956Z,13.60
2019-02-27T13:36:09.916Z,12.87
2019-02-27T13:38:40.373Z,14.47
2019-02-27T13:41:11.215Z,12.10
2019-02-27T13:43:41.823Z,9.87
2019-02-27T13:46:12.201Z,8.23
2019-02-27T13:48:42.803Z,8.23
2019-02-27T13:51:13.440Z,7.80
2019-02-27T13:53:44.858Z,35.70
2019-02-27T13:56:16.194Z,8.63
2019-02-27T13:58:47.815Z,8.67
2019-02-27T14:01:18.275Z,9.30
2019-02-27T14:03:48.981Z,9.10
2019-02-27T14:06:19.596Z,8.83
2019-02-27T14:08:50.095Z,8.60
2019-02-27T14:11:20.716Z,6.77
2019-02-27T14:13:51.364Z,7.07
2019-02-27T14:16:22.271Z,7.10
2019-02-27T14:18:54.170Z,7.77
2019-02-27T14:21:24.739Z,8.37
2019-02-27T14:23:55.326Z,7.03
2019-02-27T14:26:25.783Z,7.07
2019-02-27T14:28:56.312Z,6.97
2019-02-27T14:31:27.265Z,6.90
2019-02-27T14:33:57.903Z,6.13
2019-02-27T14:36:28.394Z,6.40
2019-02-27T14:38:58.905Z,5.50
2019-02-27T14:41:29.435Z,6.10
2019-02-27T14:44:00.038Z,9.60
2019-02-27T14:46:30.717Z,7.90
2019-02-27T14:49:02.400Z,7.87
2019-02-27T14:51:33.011Z,7.00
2019-02-27T14:54:03.765Z,6.10
2019-02-27T14:56:34.381Z,6.57
2019-02-27T14:59:04.928Z,6.40
2019-02-27T15:01:35.587Z,7.03
2019-02-27T15:04:06.316Z,6.57
2019-02-27T15:06:36.817Z,7.03
2019-02-27T15:09:08.008Z,6.83
2019-02-27T15:11:39.157Z,5.73
2019-02-27T15:14:09.754Z,6.60
2019-02-27T15:16:40.249Z,6.00
2019-02-27T15:19:10.915Z,6.27
2019-02-27T15:21:43.894Z,4.77
2019-02-27T15:24:13.627Z,4.87
2019-02-27T15:26:45.443Z,4.57
2019-02-27T15:29:16.077Z,4.67
2019-02-27T15:31:46.709Z,5.40
2019-02-27T15:34:17.522Z,5.60
2019-02-27T15:36:48.104Z,7.07
2019-02-27T15:39:21.110Z,6.50
2019-02-27T15:41:51.428Z,5.37
2019-02-27T15:44:21.945Z,8.07
2019-02-27T15:46:53.525Z,5.93
2019-02-27T15:49:25.837Z,7.20
2019-02-27T15:51:56.400Z,6.53
2019-02-27T15:54:27.018Z,7.07
2019-02-27T15:56:57.550Z,7.70
2019-02-27T15:59:28.087Z,7.97
2019-02-27T16:02:02.350Z,8.70
2019-02-27T16:04:30.588Z,8.93
2019-02-27T16:07:01.180Z,11.17
2019-02-27T16:09:32.389Z,9.97
2019-02-27T16:12:03.201Z,10.70
2019-02-27T16:14:34.537Z,11.47
2019-02-27T16:17:05.011Z,12.23
2019-02-27T16:19:35.802Z,10.90
2019-02-27T16:22:06.241Z,10.37
2019-02-27T16:24:36.799Z,8.93
2019-02-27T16:27:07.315Z,9.53
2019-02-27T16:29:38.154Z,10.33
2019-02-27T16:32:13.021Z,10.83
2019-02-27T16:34:41.821Z,12.53
2019-02-27T16:37:12.312Z,14.63
2019-02-27T16:39:45.600Z,16.03
2019-02-27T16:42:14.931Z,16.10
2019-02-27T16:44:45.440Z,18.80
2019-02-27T16:47:19.892Z,16.67
2019-02-27T16:49:50.422Z,16.40
2019-02-27T16:52:20.296Z,25.23
2019-02-27T16:54:50.808Z,29.83
2019-02-27T16:57:24.246Z,26.13
2019-02-27T16:59:53.519Z,22.73
2019-02-27T17:02:23.991Z,22.33
2019-02-27T17:04:54.579Z,18.80
2019-02-27T17:07:26.059Z,21.10
2019-02-27T17:09:57.095Z,19.70
2019-02-27T17:12:27.581Z,22.17
2019-02-27T17:14:58.653Z,23.93
2019-02-27T17:17:31.425Z,34.53
2019-02-27T17:20:01.979Z,40.73
2019-02-27T17:22:34.217Z,39.63
2019-02-27T17:25:04.943Z,35.00
2019-02-27T17:27:35.553Z,36.93
2019-02-27T17:30:08.901Z,35.53
2019-02-27T17:32:39.573Z,32.30
2019-02-27T17:35:10.167Z,33.70
2019-02-27T17:37:40.699Z,34.93
2019-02-27T17:40:11.637Z,35.60
2019-02-27T17:42:42.153Z,45.10
2019-02-27T17:45:14.474Z,72.40
2019-02-27T17:47:45.083Z,88.90
2019-02-27T17:50:16.472Z,69.70
2019-02-27T17:52:49.076Z,61.70
2019-02-27T17:55:19.253Z,47.97
2019-02-27T17:57:49.947Z,43.37
2019-02-27T18:00:29.254Z,43.10
2019-02-27T18:02:59.774Z,43.63
2019-02-27T18:05:30.289Z,41.80
2019-02-27T18:08:00.873Z,43.80
2019-02-27T18:10:31.329Z,44.53
2019-02-27T18:13:02.115Z,50.57
2019-02-27T18:15:32.658Z,50.87
2019-02-27T18:18:03.406Z,50.43
2019-02-27T18:20:34.111Z,52.03
2019-02-27T18:23:04.835Z,50.60
2019-02-27T18:25:35.495Z,46.40
2019-02-27T18:28:06.013Z,48.33
2019-02-27T18:30:36.732Z,50.70
2019-02-27T18:33:07.449Z,50.97
2019-02-27T18:35:57.131Z,53.73
2019-02-27T18:38:28.414Z,61.93
2019-02-27T18:41:00.711Z,65.60
2019-02-27T18:43:31.593Z,70.63
2019-02-27T18:46:02.055Z,70.00
2019-02-27T18:48:32.581Z,85.63
2019-02-27T18:51:05.890Z,89.70
2019-02-27T18:53:36.817Z,92.97
2019-02-27T18:56:07.262Z,87.73
2019-02-27T18:58:37.730Z,77.17
2019-02-27T19:01:09.916Z,63.67
2019-02-27T19:03:40.951Z,60.13
2019-02-27T19:06:12.241Z,55.80
2019-02-27T19:08:44.656Z,52.13
2019-02-27T19:11:16.024Z,48.53
2019-02-27T19:13:47.433Z,46.40
2019-02-27T19:16:20.725Z,46.73
2019-02-27T19:18:51.222Z,47.07
2019-02-27T19:21:21.807Z,45.10
2019-02-27T19:23:52.640Z,44.30
2019-02-27T19:26:25.059Z,44.20
2019-02-27T19:28:59.317Z,43.63
2019-02-27T19:31:28.078Z,44.77
2019-02-27T19:33:58.679Z,44.73
2019-02-27T19:36:30.817Z,44.37
2019-02-27T19:39:01.383Z,46.97
2019-02-27T19:41:38.701Z,45.87
2019-02-27T19:44:05.892Z,44.23
2019-02-27T19:46:36.342Z,45.97
2019-02-27T19:49:06.870Z,42.93
2019-02-27T19:51:37.424Z,41.57
2019-02-27T19:54:08.034Z,39.53
2019-02-27T19:56:38.603Z,36.37
2019-02-27T19:59:09.689Z,34.03
2019-02-27T20:01:45.245Z,34.23
2019-02-27T20:04:13.229Z,31.30
2019-02-27T20:06:44.021Z,32.23
2019-02-27T20:09:19.056Z,32.27
2019-02-27T20:11:47.823Z,30.57
2019-02-27T20:14:18.552Z,31.60
2019-02-27T20:16:49.104Z,29.77
2019-02-27T20:19:22.404Z,30.40
2019-02-27T20:21:51.803Z,29.00
2019-02-27T20:24:22.447Z,28.97
2019-02-27T20:26:54.846Z,29.70
2019-02-27T20:29:25.271Z,30.17
2019-02-27T20:31:55.923Z,27.73
2019-02-27T20:34:26.801Z,27.90
2019-02-27T20:36:57.340Z,28.23
2019-02-27T20:39:27.879Z,28.10
2019-02-27T20:41:58.327Z,29.47
2019-02-27T20:44:28.849Z,28.17
2019-02-27T20:46:59.452Z,27.33
2019-02-27T20:49:29.958Z,29.23
2019-02-27T20:52:00.510Z,28.33
2019-02-27T20:54:31.028Z,31.70
2019-02-27T20:57:01.702Z,30.13
2019-02-27T20:59:32.180Z,31.13
2019-02-27T21:02:02.772Z,31.47
2019-02-27T21:04:35.211Z,33.00
2019-02-27T21:07:05.747Z,31.57
2019-02-27T21:09:36.855Z,32.90
2019-02-27T21:12:07.390Z,33.03
2019-02-27T21:14:38.010Z,32.80
2019-02-27T21:17:08.504Z,31.77
2019-02-27T21:19:39.163Z,32.57
2019-02-27T21:22:09.643Z,32.10
2019-02-27T21:24:40.557Z,29.93
2019-02-27T21:27:11.734Z,30.23
2019-02-27T21:29:43.410Z,30.80
2019-02-27T21:32:14.511Z,33.00
2019-02-27T21:34:45.208Z,30.67
2019-02-27T21:37:16.264Z,31.27
2019-02-27T21:39:46.857Z,31.03
2019-02-27T21:42:19.388Z,30.80
2019-02-27T21:44:49.543Z,31.17
2019-02-27T21:47:20.119Z,31.00
2019-02-27T21:49:50.577Z,29.37
2019-02-27T21:52:22.489Z,31.13
2019-02-27T21:54:53.107Z,30.37
2019-02-27T21:57:25.561Z,29.63
2019-02-27T21:59:55.859Z,30.70
2019-02-27T22:02:27.248Z,30.67
2019-02-27T22:04:58.553Z,30.30
2019-02-27T22:07:32.911Z,30.00
2019-02-27T22:10:01.226Z,31.93
2019-02-27T22:12:32.483Z,30.23
2019-02-27T22:15:06.413Z,32.10
2019-02-27T22:17:37.633Z,32.67
2019-02-27T22:20:09.211Z,30.23
2019-02-27T22:22:41.509Z,31.47
2019-02-27T22:25:12.274Z,34.03
2019-02-27T22:27:43.290Z,30.20
2019-02-27T22:30:16.279Z,31.10
2019-02-27T22:32:48.141Z,35.63
2019-02-27T22:35:19.074Z,34.53
2019-02-27T22:37:52.388Z,34.00
2019-02-27T22:40:21.780Z,37.13
2019-02-27T22:42:52.409Z,36.80
2019-02-27T22:45:23.002Z,35.07
2019-02-27T22:47:55.193Z,31.53
2019-02-27T22:50:25.824Z,36.30
2019-02-27T22:52:56.329Z,35.70
2019-02-27T22:55:27.405Z,32.90
2019-02-27T22:57:58.174Z,32.80
2019-02-27T23:01:10.298Z,30.83
2019-02-27T23:03:55.026Z,31.70
2019-02-27T23:06:25.021Z,31.17
2019-02-27T23:08:55.616Z,33.03
2019-02-27T23:11:26.100Z,33.37
2019-02-27T23:13:56.652Z,31.77
2019-02-27T23:16:29.800Z,31.70
2019-02-27T23:18:59.275Z,32.03
2019-02-27T23:21:30.081Z,32.20
2019-02-27T23:24:00.511Z,31.40
2019-02-27T23:26:30.979Z,31.77
2019-02-27T23:29:01.578Z,30.50
2019-02-27T23:31:32.125Z,31.60
2019-02-27T23:34:02.705Z,33.70
2019-02-27T23:36:33.257Z,32.80
2019-02-27T23:39:08.377Z,31.50
2019-02-27T23:41:37.862Z,33.43
2019-02-27T23:44:08.353Z,29.93
2019-02-27T23:46:48.424Z,32.90
2019-02-27T23:49:10.976Z,33.40
2019-02-27T23:51:41.584Z,34.33
2019-02-27T23:54:12.111Z,34.83
2019-02-27T23:56:42.672Z,36.87
2019-02-27T23:59:13.167Z,33.13
